Time;durP1;ratioP1;P1;durP2;ratioP2;P2;SDS_P1;SDS_P2;PMS_P1;PMS_P2;Temp;Humidity;BMP_temperature;BMP_pressure;BME280_temperature;BME280_humidity;BME280_pressure;Samples;Min_cycle;Max_cycle;Signal;HPM_P1;HPM_P2
2022/03/17 00:02:17;;;;;;;21.57;10.03;;;;;;;-0.48;53.07;102854.95;1752735;81;25983;-59
2022/03/17 00:04:44;;;;;;;27.70;9.60;;;;;;;-0.55;52.94;102862.52;1752961;81;25808;-59
2022/03/17 00:07:12;;;;;;;20.95;9.90;;;;;;;-0.61;52.56;102860.36;1752818;81;25791;-61
2022/03/17 00:09:39;;;;;;;21.55;9.28;;;;;;;-0.65;52.87;102863.47;1753120;81;27484;-59
2022/03/17 00:12:13;;;;;;;27.45;9.73;;;;;;;-0.70;52.83;102860.87;1752589;81;25814;-58
2022/03/17 00:14:39;;;;;;;24.15;9.58;;;;;;;-0.79;52.54;102871.05;1752876;81;25836;-58
2022/03/17 00:17:06;;;;;;;18.45;9.93;;;;;;;-0.85;52.71;102861.84;1752697;81;26298;-58
2022/03/17 00:19:33;;;;;;;23.35;10.05;;;;;;;-0.88;52.94;102865.83;1753102;81;25737;-58
2022/03/17 00:22:00;;;;;;;17.40;8.53;;;;;;;-0.98;52.78;102869.41;1752768;81;27497;-57
2022/03/17 00:24:27;;;;;;;18.48;9.25;;;;;;;-1.08;52.64;102873.02;1759504;80;27178;-58
2022/03/17 00:26:54;;;;;;;20.17;10.50;;;;;;;-1.18;52.97;102877.46;1785577;80;25772;-57
2022/03/17 00:29:21;;;;;;;26.05;10.58;;;;;;;-1.28;53.26;102877.97;1785670;80;25655;-58
2022/03/17 00:31:48;;;;;;;20.10;10.55;;;;;;;-1.37;52.93;102882.83;1785409;80;25702;-58
2022/03/17 00:34:14;;;;;;;25.17;8.75;;;;;;;-1.39;53.05;102891.20;1785560;80;28126;-59
2022/03/17 00:36:42;;;;;;;20.62;9.75;;;;;;;-1.43;52.85;102890.33;1782037;80;25970;-59
2022/03/17 00:39:09;;;;;;;20.37;8.88;;;;;;;-1.45;52.87;102881.56;1771625;80;25799;-59
2022/03/17 00:41:36;;;;;;;21.52;8.75;;;;;;;-1.55;52.71;102890.40;1771678;81;25516;-59
2022/03/17 00:44:04;;;;;;;19.42;9.00;;;;;;;-1.56;53.01;102893.92;1771752;80;25678;-58
2022/03/17 00:46:31;;;;;;;16.23;8.48;;;;;;;-1.55;52.85;102897.42;1771603;81;28559;-58
2022/03/17 00:48:58;;;;;;;19.70;8.55;;;;;;;-1.60;52.55;102899.66;1771521;80;25729;-58
2022/03/17 00:51:24;;;;;;;21.95;8.45;;;;;;;-1.58;52.78;102898.31;1771603;81;25509;-58
2022/03/17 00:53:51;;;;;;;15.32;7.20;;;;;;;-1.54;52.78;102898.77;1771721;81;27526;-58
2022/03/17 00:56:19;;;;;;;15.88;7.17;;;;;;;-1.51;52.54;102899.19;1771864;80;25752;-58
2022/03/17 00:58:48;;;;;;;15.08;7.40;;;;;;;-1.51;52.22;102903.14;1771465;81;27460;-58
2022/03/17 01:01:15;;;;;;;19.87;7.58;;;;;;;-1.54;52.16;102906.68;1771454;81;25782;-59
2022/03/17 01:03:44;;;;;;;23.25;6.85;;;;;;;-1.53;52.32;102907.55;1771857;81;25745;-58
2022/03/17 01:06:11;;;;;;;17.17;7.10;;;;;;;-1.56;51.56;102905.80;1771637;81;25805;-58
2022/03/17 01:08:39;;;;;;;14.15;6.50;;;;;;;-1.61;51.82;102900.53;1771650;80;25887;-58
2022/03/17 01:11:07;;;;;;;14.30;6.55;;;;;;;-1.62;51.64;102907.15;1771647;80;27644;-59
2022/03/17 01:13:34;;;;;;;13.28;6.92;;;;;;;-1.71;51.55;102904.08;1771745;81;25493;-59
2022/03/17 01:16:01;;;;;;;17.02;6.53;;;;;;;-1.78;51.72;102909.81;1771599;81;25541;-59
2022/03/17 01:18:28;;;;;;;10.75;5.50;;;;;;;-1.79;51.88;102900.59;1771720;81;25503;-59
2022/03/17 01:20:57;;;;;;;13.00;5.50;;;;;;;-1.81;51.62;102900.60;1771438;81;25642;-59
2022/03/17 01:23:24;;;;;;;17.82;5.28;;;;;;;-1.84;51.67;102901.91;1771629;81;27613;-59
2022/03/17 01:25:52;;;;;;;16.27;5.58;;;;;;;-1.92;51.51;102903.70;1771432;81;25740;-59
2022/03/17 01:28:19;;;;;;;9.88;5.92;;;;;;;-1.94;51.40;102903.70;1771576;81;25745;-58
2022/03/17 01:30:46;;;;;;;11.60;5.65;;;;;;;-1.99;51.40;102909.87;1771628;81;25655;-58
2022/03/17 01:33:13;;;;;;;8.80;4.62;;;;;;;-2.03;51.37;102907.68;1771891;80;25766;-58
2022/03/17 01:35:39;;;;;;;9.35;4.70;;;;;;;-2.03;51.17;102910.31;1771560;81;27491;-57
2022/03/17 01:38:06;;;;;;;11.05;5.17;;;;;;;-2.06;51.25;102912.95;1771470;80;27322;-58
2022/03/17 01:40:33;;;;;;;12.07;5.58;;;;;;;-2.10;50.87;102916.45;1771616;81;25808;-58
2022/03/17 01:43:00;;;;;;;15.93;5.97;;;;;;;-2.15;50.78;102926.14;1771671;80;25707;-58
2022/03/17 01:45:28;;;;;;;12.00;5.15;;;;;;;-2.21;50.87;102920.00;1771620;80;25466;-58
2022/03/17 01:47:55;;;;;;;12.75;5.72;;;;;;;-2.20;50.62;102930.09;1771292;81;27492;-58
2022/03/17 01:50:22;;;;;;;11.03;5.25;;;;;;;-2.25;50.34;102932.73;1769039;80;25735;-59
2022/03/17 01:52:49;;;;;;;9.58;4.80;;;;;;;-2.28;50.40;102934.50;1771427;81;25737;-58
2022/03/17 01:55:18;;;;;;;11.88;4.45;;;;;;;-2.31;50.27;102933.16;1771483;81;25629;-58
2022/03/17 01:57:47;;;;;;;10.70;5.53;;;;;;;-2.36;50.44;102941.97;1754965;81;25735;-57
2022/03/17 02:00:17;;;;;;;9.78;4.15;;;;;;;-2.37;50.50;102944.16;1730033;82;27311;-59
2022/03/17 02:02:47;;;;;;;8.95;4.20;;;;;;;-2.40;50.70;102945.47;1730142;82;25958;-58
2022/03/17 02:05:14;;;;;;;11.00;4.35;;;;;;;-2.40;50.57;102948.10;1729731;82;25676;-58
2022/03/17 02:07:53;;;;;;;10.58;3.95;;;;;;;-2.44;50.61;102949.00;1730273;81;25661;-58
2022/03/17 02:10:22;;;;;;;10.75;4.15;;;;;;;-2.43;50.67;102947.23;1730196;82;26099;-58
2022/03/17 02:15:36;;;;;;;9.55;4.45;;;;;;;-2.58;50.65;102946.77;1730120;82;25464;-58
2022/03/17 02:18:06;;;;;;;9.68;4.60;;;;;;;-2.61;50.76;102956.00;1729947;82;25715;-58
2022/03/17 02:20:34;;;;;;;14.38;5.50;;;;;;;-2.67;50.81;102950.28;1730364;81;26377;-58
2022/03/17 02:26:02;;;;;;;12.82;4.75;;;;;;;-2.77;50.71;102964.30;1737409;81;27454;-59
2022/03/17 02:28:32;;;;;;;12.95;5.15;;;;;;;-2.81;50.71;102964.73;1739343;82;25756;-58
2022/03/17 02:31:01;;;;;;;11.68;5.22;;;;;;;-2.81;50.77;102962.52;1739479;82;25835;-59
2022/03/17 02:33:29;;;;;;;17.17;5.65;;;;;;;-2.81;50.66;102970.42;1739489;81;25722;-59
2022/03/17 02:35:59;;;;;;;9.63;4.80;;;;;;;-2.81;50.54;102973.06;1739411;82;25759;-58
2022/03/17 02:38:26;;;;;;;15.85;5.40;;;;;;;-2.84;50.56;102979.20;1739318;82;27509;-58
2022/03/17 02:40:53;;;;;;;11.45;4.55;;;;;;;-2.81;50.41;102975.70;1739222;82;25981;-58
2022/03/17 02:43:20;;;;;;;13.60;5.30;;;;;;;-2.80;50.61;102979.67;1739441;82;25746;-58
2022/03/17 02:45:48;;;;;;;18.37;5.00;;;;;;;-2.79;50.34;102985.80;1739297;82;25656;-58
2022/03/17 02:48:16;;;;;;;8.45;4.12;;;;;;;-2.79;50.48;102984.48;1739347;82;25649;-58
2022/03/17 02:50:43;;;;;;;15.15;5.15;;;;;;;-2.81;50.68;102989.77;1739492;82;27435;-58
2022/03/17 02:53:11;;;;;;;13.53;4.22;;;;;;;-2.81;50.79;102991.50;1739364;82;25771;-59
2022/03/17 02:55:42;;;;;;;10.28;4.25;;;;;;;-2.79;50.88;102998.56;1744911;80;25731;-58
2022/03/17 02:58:11;;;;;;;8.73;5.12;;;;;;;-2.80;50.84;103004.70;1755759;80;25500;-58
2022/03/17 03:00:39;;;;;;;8.00;3.80;;;;;;;-2.85;50.91;102998.09;1739531;82;25459;-58
2022/03/17 03:03:06;;;;;;;11.30;4.42;;;;;;;-2.80;51.11;103003.80;1739347;82;28499;-58
2022/03/17 03:05:33;;;;;;;9.73;4.47;;;;;;;-2.79;51.16;103007.78;1739192;82;25918;-58
2022/03/17 03:08:02;;;;;;;9.50;5.35;;;;;;;-2.76;50.99;103013.48;1739193;82;25828;-58
2022/03/17 03:10:29;;;;;;;7.30;3.80;;;;;;;-2.77;50.99;103011.27;1739335;82;26262;-59
2022/03/17 03:12:56;;;;;;;7.60;4.85;;;;;;;-2.75;51.04;103008.67;1739454;82;25737;-59
2022/03/17 03:15:23;;;;;;;11.68;4.53;;;;;;;-2.78;50.91;103012.59;1739366;82;28154;-58
2022/03/17 03:17:50;;;;;;;15.00;4.95;;;;;;;-2.85;50.87;103006.00;1739340;82;26118;-59
2022/03/17 03:20:17;;;;;;;9.28;4.75;;;;;;;-2.81;51.07;103008.63;1738877;82;25786;-59
2022/03/17 03:22:45;;;;;;;12.25;5.03;;;;;;;-2.78;51.01;103012.14;1739281;82;25681;-57
2022/03/17 03:25:13;;;;;;;11.55;4.58;;;;;;;-2.77;50.86;103018.31;1755818;81;25803;-57
2022/03/17 03:27:44;;;;;;;15.23;4.85;;;;;;;-2.81;50.94;103017.42;1771812;80;27443;-58
2022/03/17 03:30:11;;;;;;;9.58;4.47;;;;;;;-2.83;50.84;103023.12;1771000;80;25739;-58
2022/03/17 03:32:44;;;;;;;6.90;4.05;;;;;;;-2.88;50.72;103031.45;1771873;80;25458;-58
2022/03/17 03:37:57;;;;;;;17.48;4.70;;;;;;;-2.99;50.59;103043.23;1773861;80;25521;-59
2022/03/17 03:40:26;;;;;;;11.73;5.50;;;;;;;-3.06;50.77;103042.35;1779870;80;27477;-59
2022/03/17 03:42:52;;;;;;;13.08;5.55;;;;;;;-3.07;50.78;103046.27;1779988;80;25774;-58
2022/03/17 03:45:20;;;;;;;16.48;6.53;;;;;;;-3.09;50.90;103051.98;1779912;80;25795;-59
2022/03/17 03:47:47;;;;;;;24.85;6.00;;;;;;;-3.09;51.03;103055.48;1780104;80;25676;-59
2022/03/17 03:50:15;;;;;;;21.02;6.62;;;;;;;-3.07;51.15;103057.70;1780041;80;25848;-59
2022/03/17 03:52:43;;;;;;;15.60;7.60;;;;;;;-3.02;51.30;103060.36;1779914;80;28210;-58
2022/03/17 03:55:10;;;;;;;25.30;6.90;;;;;;;-2.98;51.31;103058.16;1779878;80;25758;-58
2022/03/17 03:57:38;;;;;;;26.65;9.28;;;;;;;-2.95;51.35;103056.87;1770423;80;25708;-58
2022/03/17 04:00:20;;;;;;;33.50;10.68;;;;;;;-2.92;51.13;103065.22;1779931;80;26317;-58
2022/03/17 04:02:38;;;;;;;23.70;9.45;;;;;;;-2.92;51.07;103067.86;1778267;80;25729;-58
2022/03/17 04:05:07;;;;;;;25.17;11.05;;;;;;;-2.90;51.03;103066.13;1779999;80;27555;-57
2022/03/17 04:07:34;;;;;;;25.82;10.05;;;;;;;-2.89;50.95;103074.47;1779854;80;25836;-58
2022/03/17 04:10:00;;;;;;;31.05;12.45;;;;;;;-2.86;50.94;103070.51;1780079;80;25765;-58
2022/03/17 04:12:27;;;;;;;21.80;9.48;;;;;;;-2.82;50.92;103068.34;1779996;80;25830;-58
2022/03/17 04:14:55;;;;;;;21.57;9.70;;;;;;;-2.77;50.90;103076.27;1779712;80;26045;-58
2022/03/17 04:17:22;;;;;;;17.75;10.30;;;;;;;-2.78;50.72;103078.46;1779860;80;28292;-58
2022/03/17 04:19:50;;;;;;;18.95;9.98;;;;;;;-2.81;50.62;103083.28;1779752;80;25757;-58
2022/03/17 04:22:17;;;;;;;17.55;7.47;;;;;;;-2.90;50.58;103085.42;1779841;80;25719;-58
2022/03/17 04:24:44;;;;;;;13.43;8.13;;;;;;;-2.93;50.65;103088.06;1779820;80;25698;-59
2022/03/17 04:27:11;;;;;;;22.52;8.45;;;;;;;-2.97;50.59;103099.89;1779771;80;25699;-58
2022/03/17 04:29:38;;;;;;;13.65;7.87;;;;;;;-3.03;50.57;103107.31;1779844;80;27601;-58
2022/03/17 04:32:07;;;;;;;18.12;7.90;;;;;;;-3.07;50.65;103110.37;1779686;80;25766;-58
2022/03/17 04:34:34;;;;;;;19.35;8.75;;;;;;;-3.10;50.76;103117.38;1779878;80;25735;-58
2022/03/17 04:37:01;;;;;;;18.12;9.13;;;;;;;-3.09;50.87;103116.05;1779928;80;26172;-58
2022/03/17 04:39:28;;;;;;;19.60;8.85;;;;;;;-3.11;50.89;103118.23;1773215;80;27211;-58
2022/03/17 04:41:55;;;;;;;18.90;7.85;;;;;;;-3.11;50.96;103123.05;1771615;81;27482;-58
2022/03/17 04:44:25;;;;;;;12.80;7.20;;;;;;;-3.11;50.95;103124.38;1771597;81;25699;-58
2022/03/17 04:46:53;;;;;;;18.42;8.85;;;;;;;-3.09;51.18;103127.03;1771461;81;25781;-59
2022/03/17 04:49:19;;;;;;;14.47;6.85;;;;;;;-3.08;51.34;103124.41;1771724;81;25656;-57
2022/03/17 04:51:46;;;;;;;23.10;7.45;;;;;;;-3.08;51.37;103125.72;1771929;80;25800;-58
2022/03/17 04:54:13;;;;;;;16.82;7.17;;;;;;;-3.10;51.31;103125.27;1771726;80;28515;-58
2022/03/17 04:56:40;;;;;;;15.28;7.60;;;;;;;-3.14;51.42;103136.22;1770747;81;25778;-57
2022/03/17 04:59:07;;;;;;;16.85;7.47;;;;;;;-3.17;51.66;103133.55;1764955;81;25732;-58
2022/03/17 05:01:34;;;;;;;28.15;10.63;;;;;;;-3.20;51.84;103135.73;1771448;81;25658;-58
2022/03/17 05:04:01;;;;;;;21.12;9.75;;;;;;;-3.20;51.79;103147.59;1771534;81;25764;-57
2022/03/17 05:06:29;;;;;;;26.85;10.08;;;;;;;-3.18;51.79;103152.41;1771671;81;27387;-57
2022/03/17 05:08:56;;;;;;;15.85;6.97;;;;;;;-3.17;51.74;103154.62;1771745;81;25683;-58
2022/03/17 05:11:23;;;;;;;16.65;7.22;;;;;;;-3.13;51.82;103158.16;1771603;81;25893;-58
2022/03/17 05:13:51;;;;;;;21.77;6.50;;;;;;;-3.10;51.97;103157.73;1771974;81;25797;-57
2022/03/17 05:16:19;;;;;;;20.55;9.50;;;;;;;-3.05;52.03;103165.67;1771553;80;25766;-58
2022/03/17 05:18:47;;;;;;;22.98;7.42;;;;;;;-3.03;51.98;103163.94;1771472;81;27470;-58
2022/03/17 05:21:15;;;;;;;14.95;7.28;;;;;;;-2.97;52.23;103174.50;1771607;80;25778;-58
2022/03/17 05:23:42;;;;;;;20.45;6.87;;;;;;;-2.88;52.46;103173.70;1771556;81;25719;-58
2022/03/17 05:26:09;;;;;;;13.55;6.15;;;;;;;-2.80;52.59;103182.53;1771764;80;26265;-58
2022/03/17 05:28:36;;;;;;;11.90;6.75;;;;;;;-2.74;52.55;103181.23;1771603;81;25714;-57
2022/03/17 05:31:03;;;;;;;19.45;8.13;;;;;;;-2.70;52.36;103180.81;1771513;80;28298;-57
2022/03/17 05:33:30;;;;;;;23.42;8.90;;;;;;;-2.65;52.27;103181.74;1771309;81;25992;-57
2022/03/17 05:35:57;;;;;;;20.15;7.95;;;;;;;-2.58;52.38;103182.22;1771376;81;25676;-59
2022/03/17 05:38:24;;;;;;;24.10;8.18;;;;;;;-2.52;52.55;103178.28;1774558;80;25810;-57
2022/03/17 05:40:52;;;;;;;42.03;12.45;;;;;;;-2.43;52.49;103182.73;1785429;80;25801;-57
2022/03/17 05:43:18;;;;;;;50.30;17.35;;;;;;;-2.45;52.15;103180.94;1784997;80;27444;-58
2022/03/17 05:45:45;;;;;;;45.03;14.28;;;;;;;-2.46;52.26;103187.08;1785064;80;25730;-59
2022/03/17 05:48:13;;;;;;;38.70;11.00;;;;;;;-2.49;52.24;103188.41;1785432;80;25748;-58
2022/03/17 05:50:42;;;;;;;43.92;10.15;;;;;;;-2.48;52.60;103191.48;1785098;80;25790;-59
2022/03/17 05:53:11;;;;;;;25.45;9.88;;;;;;;-2.47;52.37;103194.12;1785533;80;25777;-58
2022/03/17 05:55:38;;;;;;;33.90;9.23;;;;;;;-2.45;51.75;103195.44;1785519;80;27868;-59
2022/03/17 05:58:06;;;;;;;23.77;8.73;;;;;;;-2.42;51.87;103203.38;1775119;80;25828;-58
2022/03/17 06:00:35;;;;;;;29.15;9.20;;;;;;;-2.31;51.98;103204.73;1752327;81;25749;-58
2022/03/17 06:03:04;;;;;;;34.58;9.43;;;;;;;-2.20;51.54;103205.22;1749978;81;26097;-59
2022/03/17 06:05:31;;;;;;;23.25;9.00;;;;;;;-2.13;51.63;103200.86;1752669;81;25730;-58
2022/03/17 06:08:00;;;;;;;26.42;9.78;;;;;;;-2.04;51.38;103211.89;1752666;81;28287;-58
2022/03/17 06:10:34;;;;;;;34.83;11.93;;;;;;;-1.94;51.09;103207.52;1752619;81;26426;-57
2022/03/17 06:13:04;;;;;;;28.98;10.23;;;;;;;-1.86;50.88;103206.23;1752614;81;25818;-58
2022/03/17 06:15:34;;;;;;;31.62;9.75;;;;;;;-1.78;50.72;103213.72;1752875;81;26431;-59
2022/03/17 06:18:03;;;;;;;39.40;10.70;;;;;;;-1.70;50.84;103215.94;1752627;81;25501;-57
2022/03/17 06:20:33;;;;;;;23.75;10.35;;;;;;;-1.63;50.61;103219.03;1752921;81;26992;-57
2022/03/17 06:23:02;;;;;;;22.40;8.48;;;;;;;-1.53;50.19;103219.05;1752742;81;25825;-58
2022/03/17 06:25:32;;;;;;;26.75;10.10;;;;;;;-1.47;50.02;103223.91;1762210;80;25807;-58
2022/03/17 06:27:59;;;;;;;30.37;8.55;;;;;;;-1.40;49.53;103219.52;1767028;81;25509;-58
2022/03/17 06:30:32;;;;;;;15.78;7.45;;;;;;;-1.35;49.28;103223.03;1767370;81;27290;-59
2022/03/17 06:33:01;;;;;;;26.70;7.10;;;;;;;-1.31;49.21;103227.88;1767054;81;29639;-58
2022/03/17 06:35:28;;;;;;;28.47;8.25;;;;;;;-1.27;48.30;103229.66;1767615;81;26110;-58
2022/03/17 06:37:59;;;;;;;18.98;7.97;;;;;;;-1.27;49.05;103230.52;1767156;81;25829;-59
2022/03/17 06:40:29;;;;;;;24.95;7.03;;;;;;;-1.21;49.27;103229.64;1757709;81;25636;-58
2022/03/17 06:42:56;;;;;;;20.57;7.62;;;;;;;-1.14;48.89;103231.41;1756510;81;25750;-58
2022/03/17 06:45:24;;;;;;;20.05;6.70;;;;;;;-1.08;48.72;103234.95;1756751;81;27455;-58
2022/03/17 06:47:52;;;;;;;24.77;6.90;;;;;;;-1.02;48.66;103237.12;1756392;81;25797;-58
2022/03/17 06:50:22;;;;;;;26.40;7.75;;;;;;;-0.93;48.23;103241.95;1756641;81;25679;-58
2022/03/17 06:52:51;;;;;;;16.32;6.65;;;;;;;-0.86;48.06;103249.03;1756281;81;25558;-57
2022/03/17 06:55:19;;;;;;;19.48;8.35;;;;;;;-0.77;47.95;103244.16;1756447;81;26440;-58
2022/03/17 06:57:46;;;;;;;23.12;7.28;;;;;;;-0.69;48.27;103247.25;1750580;81;27476;-57
2022/03/17 07:00:15;;;;;;;23.50;8.48;;;;;;;-0.58;48.20;103256.93;1745390;81;25633;-58
2022/03/17 07:02:43;;;;;;;22.77;8.40;;;;;;;-0.50;47.92;103251.18;1760651;80;26641;-57
2022/03/17 07:05:11;;;;;;;17.67;6.92;;;;;;;-0.43;47.76;103257.31;1787247;80;25828;-58
2022/03/17 07:07:38;;;;;;;20.62;8.23;;;;;;;-0.38;47.37;103249.80;1787432;80;25814;-57
2022/03/17 07:10:07;;;;;;;17.10;6.30;;;;;;;-0.30;47.37;103248.90;1786957;80;27530;-58
2022/03/17 07:12:36;;;;;;;11.83;5.53;;;;;;;-0.25;47.22;103251.11;1787398;80;25489;-59
2022/03/17 07:15:05;;;;;;;18.37;7.72;;;;;;;-0.20;46.58;103252.86;1787449;80;25750;-58
2022/03/17 07:17:40;;;;;;;14.87;5.95;;;;;;;-0.13;46.54;103258.11;1787370;80;25728;-58
2022/03/17 07:20:12;;;;;;;18.05;6.62;;;;;;;-0.08;46.30;103245.73;1787715;80;25827;-58
2022/03/17 07:22:41;;;;;;;14.65;6.25;;;;;;;-0.03;46.06;103255.88;1787798;80;27458;-59
2022/03/17 07:25:11;;;;;;;13.72;6.28;;;;;;;0.03;46.40;103257.63;1779488;80;25747;-57
2022/03/17 07:27:46;;;;;;;8.85;4.60;;;;;;;0.10;45.82;103264.64;1771653;80;25770;-58
2022/03/17 07:30:20;;;;;;;11.03;4.95;;;;;;;0.16;45.84;103264.61;1771386;81;26226;-59
2022/03/17 07:32:49;;;;;;;11.25;5.15;;;;;;;0.22;45.01;103261.95;1771962;80;25783;-59
2022/03/17 07:35:16;;;;;;;26.95;4.45;;;;;;;0.29;45.14;103255.73;1771429;81;27199;-58
2022/03/17 07:37:43;;;;;;;15.75;5.58;;;;;;;0.39;44.78;103252.57;1771856;80;25837;-58
2022/03/17 07:40:12;;;;;;;11.40;6.10;;;;;;;0.44;44.52;103255.19;1771453;80;25755;-58
2022/03/17 07:42:39;;;;;;;14.20;5.37;;;;;;;0.50;44.60;103254.28;1772264;81;25819;-59
2022/03/17 07:45:18;;;;;;;11.95;5.40;;;;;;;0.55;43.38;103258.66;1769248;80;25743;-58
2022/03/17 07:48:07;;;;;;;11.38;5.47;;;;;;;0.60;43.40;103249.36;1771771;81;28440;-58
2022/03/17 07:50:34;;;;;;;11.05;5.40;;;;;;;0.66;43.88;103254.61;1771437;80;25707;-58
2022/03/17 07:53:01;;;;;;;14.00;5.28;;;;;;;0.78;43.44;103253.20;1771664;81;25759;-59
2022/03/17 07:55:28;;;;;;;12.60;5.30;;;;;;;0.86;43.40;103246.50;1771456;80;26455;-58
2022/03/17 07:57:55;;;;;;;14.15;4.92;;;;;;;0.99;43.68;103239.78;1754316;81;25782;-58
2022/03/17 08:00:23;;;;;;;37.13;5.00;;;;;;;1.12;42.94;103252.02;1732496;82;27754;-58
2022/03/17 08:02:49;;;;;;;9.40;3.27;;;;;;;1.21;42.90;103246.64;1732760;82;25772;-58
2022/03/17 08:05:16;;;;;;;6.28;3.08;;;;;;;1.34;41.64;103247.86;1732591;81;25470;-59
2022/03/17 08:07:43;;;;;;;9.13;4.22;;;;;;;1.43;41.87;103241.59;1732541;82;25715;-58
2022/03/17 08:10:11;;;;;;;12.95;3.80;;;;;;;1.52;41.36;103245.02;1732575;82;25491;-59
2022/03/17 08:12:38;;;;;;;11.03;3.60;;;;;;;1.59;41.13;103242.28;1732666;82;27447;-58
2022/03/17 08:15:06;;;;;;;7.33;3.37;;;;;;;1.71;40.63;103242.16;1732641;82;25454;-58
2022/03/17 08:17:34;;;;;;;8.93;3.85;;;;;;;1.84;40.42;103241.56;1732643;81;25677;-56
2022/03/17 08:20:04;;;;;;;7.03;3.12;;;;;;;1.96;40.83;103236.55;1732441;81;25876;-57
2022/03/17 08:22:30;;;;;;;5.85;3.02;;;;;;;2.09;39.26;103235.51;1732885;82;25838;-58
2022/03/17 08:24:57;;;;;;;8.78;2.83;;;;;;;2.17;40.00;103230.97;1748514;81;27469;-58
2022/03/17 08:27:24;;;;;;;11.18;3.47;;;;;;;2.29;39.76;103235.66;1771629;81;25735;-58
2022/03/17 08:29:51;;;;;;;7.65;3.22;;;;;;;2.42;39.21;103229.28;1771584;80;25735;-58
2022/03/17 08:32:18;;;;;;;8.75;3.27;;;;;;;2.49;39.08;103226.09;1771937;80;25603;-58
2022/03/17 08:34:45;;;;;;;10.75;3.58;;;;;;;2.55;39.65;103226.45;1771846;80;25706;-57
2022/03/17 08:37:12;;;;;;;10.88;3.45;;;;;;;2.66;38.74;103212.09;1771719;81;28540;-58
2022/03/17 08:39:39;;;;;;;11.85;3.55;;;;;;;2.82;39.38;103215.82;1771284;80;25809;-59
2022/03/17 08:42:08;;;;;;;14.35;3.08;;;;;;;3.03;38.40;103221.69;1771363;81;25734;-57
2022/03/17 08:44:34;;;;;;;8.38;2.70;;;;;;;3.20;36.85;103216.05;1771598;80;25811;-58
2022/03/17 08:49:46;;;;;;;6.47;2.75;;;;;;;3.29;35.40;103218.11;1771832;80;28132;-57
2022/03/17 08:52:13;;;;;;;12.20;2.80;;;;;;;3.38;35.29;103219.70;1771557;81;25854;-58
2022/03/17 08:54:42;;;;;;;13.83;3.30;;;;;;;3.48;34.63;103217.76;1771708;81;25755;-56
2022/03/17 08:57:10;;;;;;;14.05;3.40;;;;;;;3.60;35.39;103220.16;1764498;81;25721;-57
2022/03/17 08:59:38;;;;;;;4.15;2.40;;;;;;;3.82;34.64;103214.84;1730786;81;25744;-59
2022/03/17 09:02:12;;;;;;;10.82;2.92;;;;;;;4.00;33.31;103217.59;1730431;81;27396;-58
2022/03/17 09:04:40;;;;;;;15.45;3.40;;;;;;;4.11;34.52;103215.58;1730011;81;25716;-57
2022/03/17 09:07:08;;;;;;;10.05;2.83;;;;;;;4.26;33.41;103217.00;1730593;82;25902;-57
2022/03/17 09:09:37;;;;;;;6.58;2.65;;;;;;;4.46;33.01;103222.33;1730451;81;25594;-57
2022/03/17 09:12:07;;;;;;;7.75;2.52;;;;;;;4.72;31.83;103217.72;1730320;81;25847;-57
2022/03/17 09:14:37;;;;;;;3.85;2.17;;;;;;;5.01;29.58;103214.78;1730275;82;28197;-58
2022/03/17 09:17:04;;;;;;;7.08;2.20;;;;;;;5.10;29.01;103216.31;1730130;82;26454;-58
2022/03/17 09:19:32;;;;;;;22.17;2.60;;;;;;;5.16;29.67;103216.14;1730207;81;25851;-57
2022/03/17 09:22:00;;;;;;;8.78;1.75;;;;;;;5.39;29.29;103217.33;1729710;81;25720;-57
2022/03/17 09:24:30;;;;;;;3.80;2.17;;;;;;;5.66;28.65;103216.14;1738701;80;25745;-58
2022/03/17 09:26:55;;;;;;;15.88;3.67;;;;;;;5.91;27.36;103210.97;1749261;81;27482;-58
2022/03/17 09:29:22;;;;;;;12.50;3.67;;;;;;;6.21;26.73;103214.54;1771864;80;26077;-58
2022/03/17 09:31:50;;;;;;;13.75;3.50;;;;;;;6.57;28.81;103208.95;1771485;81;25714;-57
2022/03/17 09:34:17;;;;;;;22.75;3.47;;;;;;;7.48;28.62;103206.29;1771615;81;25665;-57
2022/03/17 09:36:43;;;;;;;15.85;4.17;;;;;;;8.45;26.66;103211.06;1771643;81;25482;-57
2022/03/17 09:41:56;;;;;;;17.55;4.60;;;;;;;9.83;25.12;103209.17;1778694;80;25859;-57
2022/03/17 09:44:24;;;;;;;11.43;5.03;;;;;;;10.39;24.12;103205.23;1779882;80;25730;-57
2022/03/17 09:46:55;;;;;;;10.38;4.35;;;;;;;10.91;24.77;103211.64;1779598;80;25805;-57
2022/03/17 09:49:21;;;;;;;11.48;4.25;;;;;;;11.30;24.07;103205.11;1779521;80;25718;-58
2022/03/17 09:51:49;;;;;;;38.35;5.95;;;;;;;11.75;23.47;103206.28;1780047;80;27495;-57
2022/03/17 09:54:16;;;;;;;22.15;5.80;;;;;;;12.12;22.90;103205.22;1779161;80;25895;-58
2022/03/17 09:56:43;;;;;;;13.75;4.60;;;;;;;12.53;23.58;103208.75;1779682;80;25802;-57
2022/03/17 09:59:10;;;;;;;13.90;5.28;;;;;;;13.03;21.99;103210.77;1756480;80;25782;-57
2022/03/17 10:01:38;;;;;;;10.20;4.90;;;;;;;13.31;22.46;103210.44;1748464;80;25780;-56
2022/03/17 10:04:07;;;;;;;15.80;4.70;;;;;;;13.45;21.94;103201.02;1748797;82;27648;-57
2022/03/17 10:06:34;;;;;;;16.00;4.72;;;;;;;13.65;20.86;103207.02;1748797;82;25744;-57
2022/03/17 10:09:01;;;;;;;14.80;4.90;;;;;;;14.14;21.86;103209.77;1748930;82;25807;-57
2022/03/17 10:11:31;;;;;;;9.88;4.12;;;;;;;14.40;21.63;103197.20;1748847;82;25802;-57
2022/03/17 10:13:59;;;;;;;7.10;3.62;;;;;;;14.75;21.89;103192.28;1748973;82;25706;-58
2022/03/17 10:16:29;;;;;;;11.53;3.83;;;;;;;15.10;21.07;103187.62;1748870;82;26956;-58
2022/03/17 10:18:58;;;;;;;7.37;3.40;;;;;;;15.48;21.80;103190.81;1748788;82;26128;-58
2022/03/17 10:21:27;;;;;;;6.15;3.17;;;;;;;16.29;19.55;103185.90;1749010;82;25821;-58
2022/03/17 10:24:07;;;;;;;11.75;3.10;;;;;;;16.71;18.91;103183.62;1748834;82;25723;-57
2022/03/17 10:26:50;;;;;;;5.10;2.90;;;;;;;16.85;17.36;103177.12;1748841;82;25752;-57
2022/03/17 10:29:20;;;;;;;11.53;2.87;;;;;;;16.77;17.85;103170.05;1749077;80;27462;-58
2022/03/17 10:32:00;;;;;;;12.28;2.85;;;;;;;16.85;16.95;103178.98;1748843;80;25718;-59
2022/03/17 10:34:36;;;;;;;11.10;2.77;;;;;;;16.80;17.13;103166.22;1748866;82;25469;-59
2022/03/17 10:37:10;;;;;;;13.93;3.00;;;;;;;15.79;16.58;103166.91;1731216;82;25518;-58
2022/03/17 10:39:42;;;;;;;22.70;3.40;;;;;;;14.79;17.42;103185.66;1748710;81;25934;-58
2022/03/17 10:42:13;;;;;;;49.80;3.62;;;;;;;14.75;17.03;103172.81;1732347;81;27642;-57
2022/03/17 10:44:43;;;;;;;24.25;2.90;;;;;;;15.12;16.02;103163.49;1730054;81;25787;-57
2022/03/17 10:47:10;;;;;;;9.75;2.67;;;;;;;15.25;16.03;103168.03;1730157;82;25817;-58
2022/03/17 10:49:38;;;;;;;11.75;2.45;;;;;;;15.53;16.41;103159.28;1730127;82;26139;-58
2022/03/17 10:52:05;;;;;;;5.08;2.50;;;;;;;15.87;16.50;103155.03;1730246;82;25473;-57
2022/03/17 10:54:32;;;;;;;11.85;2.65;;;;;;;16.18;16.32;103148.66;1730281;81;27478;-57
2022/03/17 10:57:07;;;;;;;4.25;2.52;;;;;;;16.56;15.67;103158.48;1731434;81;26425;-57
2022/03/17 10:59:39;;;;;;;8.45;2.85;;;;;;;16.62;16.08;103148.99;1769038;81;25532;-58
2022/03/17 11:02:10;;;;;;;17.32;2.77;;;;;;;16.63;15.85;103149.88;1771676;81;25806;-58
2022/03/17 11:04:44;;;;;;;8.40;2.47;;;;;;;15.75;15.19;103144.55;1771420;81;25729;-57
2022/03/17 11:07:14;;;;;;;7.42;2.37;;;;;;;14.13;15.88;103143.52;1772662;80;27568;-57
2022/03/17 11:09:45;;;;;;;5.28;2.67;;;;;;;13.46;16.10;103151.84;1787397;80;25643;-58
2022/03/17 11:12:17;;;;;;;2.33;1.60;;;;;;;13.78;16.38;103159.27;1785872;80;25863;-58
2022/03/17 11:14:46;;;;;;;20.50;2.30;;;;;;;14.45;16.56;103146.80;1787431;80;25834;-58
2022/03/17 11:17:19;;;;;;;24.63;2.92;;;;;;;14.89;15.96;103158.78;1787639;80;25775;-58
2022/03/17 11:19:46;;;;;;;5.20;2.33;;;;;;;14.95;15.69;103157.03;1757011;80;28216;-58
2022/03/17 11:22:16;;;;;;;13.83;2.35;;;;;;;13.76;16.11;103157.13;1787141;80;26109;-58
2022/03/17 11:24:45;;;;;;;3.30;1.80;;;;;;;13.96;16.92;103159.03;1739606;82;25309;-58
2022/03/17 11:27:14;;;;;;;6.17;2.12;;;;;;;14.45;16.62;103154.06;1711951;82;25799;-57
2022/03/17 11:29:48;;;;;;;6.00;2.47;;;;;;;14.70;16.28;103155.52;1732789;81;25786;-58
2022/03/17 11:32:29;;;;;;;6.85;2.12;;;;;;;14.83;16.32;103151.47;1732400;81;27506;-59
2022/03/17 11:35:18;;;;;;;13.55;2.52;;;;;;;14.65;16.28;103145.93;1732645;82;25756;-58
2022/03/17 11:37:45;;;;;;;11.97;2.55;;;;;;;13.93;16.23;103144.38;1732494;82;25822;-58
2022/03/17 11:40:16;;;;;;;5.85;2.65;;;;;;;12.64;16.88;103159.51;1732693;82;25618;-59